Time;durP1;ratioP1;P1;durP2;ratioP2;P2;SDS_P1;SDS_P2;PMS_P1;PMS_P2;Temp;Humidity;BMP_temperature;BMP_pressure;BME280_temperature;BME280_humidity;BME280_pressure;Samples;Min_cycle;Max_cycle;Signal;HPM_P1;HPM_P2
2022/08/08 00:01:56;;;;;;;;;;;;;;;-145.18;100.00;46660.41;4993254;28;19918;-70
2022/08/08 00:04:36;;;;;;;;;;;;;;;-145.18;100.00;46660.41;4993411;28;20291;-70
2022/08/08 00:07:07;;;;;;;;;;;;;;;-145.18;100.00;46660.41;4993165;28;19920;-70
2022/08/08 00:09:35;;;;;;;;;;;;;;;-145.18;100.00;46660.41;4993213;28;20059;-70
2022/08/08 00:12:05;;;;;;;;;;;;;;;-145.18;100.00;46660.41;4992841;28;19914;-70
2022/08/08 00:14:33;;;;;;;;;;;;;;;-145.18;100.00;46660.41;4992506;28;20016;-70
2022/08/08 00:17:07;;;;;;;;;;;;;;;-145.18;100.00;46660.41;4993232;28;19917;-69
2022/08/08 00:19:45;;;;;;;;;;;;;;;-145.18;100.00;46660.41;4993113;28;20595;-70
2022/08/08 00:22:23;;;;;;;;;;;;;;;-145.18;100.00;46660.41;4993251;28;19919;-70
2022/08/08 00:24:49;;;;;;;;;;;;;;;-145.18;100.00;46660.41;4992953;28;19949;-70
2022/08/08 00:27:16;;;;;;;;;;;;;;;-145.18;100.00;46660.41;4992984;28;19920;-70
2022/08/08 00:29:45;;;;;;;;;;;;;;;-145.18;100.00;46660.41;4992814;28;20346;-70
2022/08/08 00:32:19;;;;;;;;;;;;;;;-145.18;100.00;46660.41;4992736;28;19914;-70
2022/08/08 00:37:49;;;;;;;;;;;;;;;-145.18;100.00;46660.41;4959514;28;20285;-70
2022/08/08 00:40:14;;;;;;;;;;;;;;;-145.18;100.00;46660.41;4993118;28;19914;-70
2022/08/08 00:42:58;;;;;;;;;;;;;;;-145.18;100.00;46660.41;4992631;28;19976;-70
2022/08/08 00:45:32;;;;;;;;;;;;;;;-145.18;100.00;46660.41;4992724;28;20020;-70
2022/08/08 00:48:10;;;;;;;;;;;;;;;-145.18;100.00;46660.41;4992383;28;20370;-70
2022/08/08 00:50:38;;;;;;;;;;;;;;;-145.18;100.00;46660.41;4992782;28;19914;-70
2022/08/08 00:53:22;;;;;;;;;;;;;;;-145.18;100.00;46660.41;4992348;28;19913;-70
2022/08/08 00:55:47;;;;;;;;;;;;;;;-145.18;100.00;46660.41;4992748;28;19936;-70
2022/08/08 00:58:31;;;;;;;;;;;;;;;-145.18;100.00;46660.41;4990216;28;19918;-70
2022/08/08 01:01:05;;;;;;;;;;;;;;;-145.18;100.00;46660.41;4992406;28;19924;-70
2022/08/08 01:03:49;;;;;;;;;;;;;;;-145.18;100.00;46660.41;4992174;28;20016;-70
2022/08/08 01:06:17;;;;;;;;;;;;;;;-145.18;100.00;46660.41;4992575;28;19921;-70
2022/08/08 01:09:01;;;;;;;;;;;;;;;-145.18;100.00;46658.44;4991780;28;20611;-70
2022/08/08 01:11:26;;;;;;;;;;;;;;;-145.18;100.00;46660.41;4992238;28;19957;-70
2022/08/08 01:14:06;;;;;;;;;;;;;;;-145.18;100.00;46660.41;4992192;28;19945;-70
2022/08/08 01:16:32;;;;;;;;;;;;;;;-145.18;100.00;46660.41;4991873;28;19920;-71
2022/08/08 01:19:23;;;;;;;;;;;;;;;-145.18;100.00;46660.41;4991925;28;19918;-70
2022/08/08 01:21:55;;;;;;;;;;;;;;;-145.18;100.00;46660.41;4988907;28;19917;-70
2022/08/08 01:24:29;;;;;;;;;;;;;;;-145.18;100.00;46660.41;4991674;28;19917;-70
2022/08/08 01:27:00;;;;;;;;;;;;;;;-145.18;100.00;46660.41;4991939;28;19913;-70
2022/08/08 01:29:28;;;;;;;;;;;;;;;-145.18;100.00;46660.41;4991737;28;19913;-70
2022/08/08 01:31:53;;;;;;;;;;;;;;;-145.18;100.00;46660.41;4991737;28;19918;-70
2022/08/08 01:34:37;;;;;;;;;;;;;;;-145.18;100.00;46660.41;4991813;28;20433;-70
2022/08/08 01:37:24;;;;;;;;;;;;;;;-145.18;100.00;46660.41;4990803;28;19944;-70
2022/08/08 01:40:09;;;;;;;;;;;;;;;-145.18;100.00;46658.44;4991931;28;20370;-70
2022/08/08 01:42:35;;;;;;;;;;;;;;;-145.18;100.00;46660.41;4991005;28;20434;-70
2022/08/08 01:45:23;;;;;;;;;;;;;;;-145.18;100.00;46660.41;4991792;28;19917;-70
2022/08/08 01:47:51;;;;;;;;;;;;;;;-145.18;100.00;46660.41;4963355;28;20371;-69
2022/08/08 01:50:31;;;;;;;;;;;;;;;-145.18;100.00;46660.41;4991966;28;19965;-70
2022/08/08 01:52:57;;;;;;;;;;;;;;;-145.18;100.00;46660.41;4991274;28;20509;-69
2022/08/08 01:55:31;;;;;;;;;;;;;;;-145.18;100.00;46660.41;4990969;28;19961;-70
2022/08/08 01:58:11;;;;;;;;;;;;;;;-145.18;100.00;46660.41;4991598;28;20021;-69
2022/08/08 02:03:18;;;;;;;;;;;;;;;-145.18;100.00;46660.41;5141068;23;19944;-71
2022/08/08 02:06:01;;;;;;;;;;;;;;;-145.18;100.00;46656.50;5011810;28;19996;-71
2022/08/08 02:08:27;;;;;;;;;;;;;;;-145.18;100.00;46656.50;5011156;28;20034;-69
2022/08/08 02:11:01;;;;;;;;;;;;;;;-145.18;100.00;46660.41;5011134;28;19996;-69
2022/08/08 02:13:52;;;;;;;;;;;;;;;-145.18;100.00;46656.50;5011058;28;19960;-69
2022/08/08 02:16:22;;;;;;;;;;;;;;;-145.18;100.00;46658.44;5011321;28;19966;-70
2022/08/08 02:19:06;;;;;;;;;;;;;;;-145.18;100.00;46656.50;4993185;28;19914;-69
2022/08/08 02:24:25;;;;;;;;;;;;;;;-145.18;100.00;46658.44;5011473;28;19920;-68
2022/08/08 02:26:53;;;;;;;;;;;;;;;-145.18;100.00;46656.50;5010824;28;19917;-68
2022/08/08 02:29:37;;;;;;;;;;;;;;;-145.18;100.00;46658.44;5011316;28;20019;-69
2022/08/08 02:32:14;;;;;;;;;;;;;;;-145.18;100.00;46660.41;5010511;28;20021;-70
2022/08/08 02:34:52;;;;;;;;;;;;;;;-145.18;100.00;46658.44;5011090;28;20127;-68
2022/08/08 02:37:23;;;;;;;;;;;;;;;-145.18;100.00;46652.59;5013805;28;20428;-70
2022/08/08 02:39:51;;;;;;;;;;;;;;;-145.18;100.00;46656.50;5014987;28;19913;-68
2022/08/08 02:42:16;;;;;;;;;;;;;;;-145.18;100.00;46658.44;5014729;28;19917;-69
2022/08/08 02:44:47;;;;;;;;;;;;;;;-145.18;100.00;46656.50;5015154;28;20301;-68
2022/08/08 02:47:28;;;;;;;;;;;;;;;-145.18;100.00;46656.50;5014559;28;20297;-69
2022/08/08 02:50:16;;;;;;;;;;;;;;;-145.18;100.00;46656.50;5014807;28;19928;-70
2022/08/08 02:52:44;;;;;;;;;;;;;;;-145.18;100.00;46654.53;4977352;28;19917;-69
2022/08/08 02:55:15;;;;;;;;;;;;;;;-145.18;100.00;46656.50;5014370;28;19920;-70
2022/08/08 02:58:11;;;;;;;;;;;;;;;-145.18;100.00;46658.44;5014101;28;19952;-71
2022/08/08 03:01:01;;;;;;;;;;;;;;;-145.18;100.00;46660.41;5014889;28;20383;-70
2022/08/08 03:03:54;;;;;;;;;;;;;;;-145.18;100.00;46660.41;5014082;28;19967;-69
2022/08/08 03:06:22;;;;;;;;;;;;;;;-145.18;100.00;46658.44;5014614;28;19958;-71
2022/08/08 03:09:09;;;;;;;;;;;;;;;-145.18;100.00;46660.41;5014070;28;20444;-69
2022/08/08 03:11:40;;;;;;;;;;;;;;;-145.18;100.00;46656.50;5014710;28;20530;-68
2022/08/08 03:14:08;;;;;;;;;;;;;;;-145.18;100.00;46660.41;5014104;28;19914;-68
2022/08/08 03:16:41;;;;;;;;;;;;;;;-145.18;100.00;46660.41;5014215;28;19913;-68
2022/08/08 03:19:09;;;;;;;;;;;;;;;-145.18;100.00;46660.41;4996462;28;19921;-68
2022/08/08 03:21:34;;;;;;;;;;;;;;;-145.18;100.00;46656.50;5014514;28;19920;-68
2022/08/08 03:23:59;;;;;;;;;;;;;;;-145.18;100.00;46656.50;5013778;28;19921;-69
2022/08/08 03:26:29;;;;;;;;;;;;;;;-145.18;100.00;46660.41;5014178;28;20341;-69
2022/08/08 03:28:57;;;;;;;;;;;;;;;-145.18;100.00;46660.41;5013513;28;19968;-69
2022/08/08 03:34:07;;;;;;;;;;;;;;;-145.18;100.00;46660.41;5013880;28;20431;-68
2022/08/08 03:36:38;;;;;;;;;;;;;;;-145.18;100.00;46660.41;5014005;28;19921;-68
2022/08/08 03:39:04;;;;;;;;;;;;;;;-145.18;100.00;46660.41;5013479;28;19913;-69
2022/08/08 03:41:32;;;;;;;;;;;;;;;-145.18;100.00;46660.41;5014230;28;19918;-71
2022/08/08 03:43:58;;;;;;;;;;;;;;;-145.18;100.00;46660.41;4996044;28;19917;-68
2022/08/08 03:46:23;;;;;;;;;;;;;;;-145.18;100.00;46658.44;5013665;28;19914;-68
2022/08/08 03:49:01;;;;;;;;;;;;;;;-145.18;100.00;46660.41;5013229;28;19920;-69
2022/08/08 03:51:26;;;;;;;;;;;;;;;-145.18;100.00;46660.41;5013813;28;19923;-68
2022/08/08 03:53:51;;;;;;;;;;;;;;;-145.18;100.00;46660.41;5013207;28;19917;-68
2022/08/08 03:56:17;;;;;;;;;;;;;;;-145.18;100.00;46658.44;5013605;28;19913;-68
2022/08/08 03:58:47;;;;;;;;;;;;;;;-145.18;100.00;46658.44;5013279;28;19945;-68
2022/08/08 04:01:12;;;;;;;;;;;;;;;-145.18;100.00;46656.50;5013462;28;19936;-68
2022/08/08 04:03:37;;;;;;;;;;;;;;;-145.18;100.00;46656.50;5013249;28;20374;-68
2022/08/08 04:06:04;;;;;;;;;;;;;;;-145.18;100.00;46656.50;5013258;28;19939;-69
2022/08/08 04:08:29;;;;;;;;;;;;;;;-145.18;100.00;46656.50;5012832;28;20012;-68
2022/08/08 04:10:54;;;;;;;;;;;;;;;-145.18;100.00;46656.50;5013197;28;20425;-68
2022/08/08 04:13:19;;;;;;;;;;;;;;;-145.18;100.00;46656.50;5012878;28;20449;-68
2022/08/08 04:15:45;;;;;;;;;;;;;;;-145.18;100.00;46642.81;5013450;28;19917;-69
2022/08/08 04:18:10;;;;;;;;;;;;;;;-145.18;100.00;46654.53;5012759;28;19926;-68
2022/08/08 04:20:36;;;;;;;;;;;;;;;-145.18;100.00;46652.59;5013428;28;20019;-68
2022/08/08 04:23:01;;;;;;;;;;;;;;;-145.18;100.00;46640.88;5012567;28;20392;-68
2022/08/08 04:25:26;;;;;;;;;;;;;;;-145.18;100.00;46640.88;5013348;28;19976;-68
2022/08/08 04:27:52;;;;;;;;;;;;;;;-145.18;100.00;46642.81;5012832;28;20293;-68
2022/08/08 04:30:17;;;;;;;;;;;;;;;-145.18;100.00;46642.81;5013085;28;19917;-68
2022/08/08 04:32:42;;;;;;;;;;;;;;;-145.18;100.00;46640.88;5012750;28;19917;-68
2022/08/08 04:35:07;;;;;;;;;;;;;;;-145.18;100.00;46642.81;5012801;28;20401;-68
2022/08/08 04:37:33;;;;;;;;;;;;;;;-145.18;100.00;46640.88;5012640;28;20285;-68
2022/08/08 04:39:58;;;;;;;;;;;;;;;-145.18;100.00;46642.81;5012869;28;19928;-69
2022/08/08 04:42:25;;;;;;;;;;;;;;;-145.18;100.00;46640.88;5012332;28;19956;-68
2022/08/08 04:44:52;;;;;;;;;;;;;;;-145.18;100.00;46640.88;5012826;28;20004;-68
2022/08/08 04:47:18;;;;;;;;;;;;;;;-145.18;100.00;46640.88;5012370;28;19910;-68
2022/08/08 04:49:43;;;;;;;;;;;;;;;-145.18;100.00;46640.88;5012667;28;19928;-68
2022/08/08 04:52:09;;;;;;;;;;;;;;;-145.18;100.00;46650.63;5012508;28;20278;-68
2022/08/08 04:54:34;;;;;;;;;;;;;;;-145.18;100.00;46640.88;5012396;28;20262;-68
2022/08/08 04:56:59;;;;;;;;;;;;;;;-145.18;100.00;46642.81;5012249;28;19932;-68
2022/08/08 04:59:24;;;;;;;;;;;;;;;-145.18;100.00;46638.91;5011357;28;19927;-68
2022/08/08 05:01:50;;;;;;;;;;;;;;;-145.18;100.00;46650.63;5010950;28;19927;-68
2022/08/08 05:04:15;;;;;;;;;;;;;;;-145.18;100.00;46652.59;4992402;28;19918;-68
2022/08/08 05:06:40;;;;;;;;;;;;;;;-145.18;100.00;46640.88;4992746;28;19925;-68
2022/08/08 05:09:05;;;;;;;;;;;;;;;-145.18;100.00;46636.94;4991919;28;19941;-68
2022/08/08 05:11:32;;;;;;;;;;;;;;;-145.18;100.00;46636.94;4992877;28;20331;-68
2022/08/08 05:13:57;;;;;;;;;;;;;;;-145.18;100.00;46640.88;4992156;28;20015;-68
2022/08/08 05:16:23;;;;;;;;;;;;;;;-145.18;100.00;46642.81;4992292;28;20029;-68
2022/08/08 05:18:48;;;;;;;;;;;;;;;-145.18;100.00;46650.63;4992440;28;19918;-68
2022/08/08 05:21:14;;;;;;;;;;;;;;;-145.18;100.00;46640.88;4992340;28;19980;-68
2022/08/08 05:23:39;;;;;;;;;;;;;;;-145.18;100.00;46642.81;4992094;28;19973;-68
2022/08/08 05:26:04;;;;;;;;;;;;;;;-145.18;100.00;46640.88;4992252;28;20558;-70
2022/08/08 05:28:29;;;;;;;;;;;;;;;-145.18;100.00;46650.63;4991974;28;19922;-68
2022/08/08 05:30:55;;;;;;;;;;;;;;;-145.18;100.00;46640.88;4992265;28;19918;-69
2022/08/08 05:33:20;;;;;;;;;;;;;;;-145.18;100.00;46636.94;4992028;28;20425;-68
2022/08/08 05:35:45;;;;;;;;;;;;;;;-145.18;100.00;46638.91;4974910;28;20020;-68
2022/08/08 05:38:16;;;;;;;;;;;;;;;-145.18;100.00;46640.88;4991549;28;19925;-69
2022/08/08 05:40:44;;;;;;;;;;;;;;;-145.18;100.00;46638.91;4992170;28;20359;-68
2022/08/08 05:43:13;;;;;;;;;;;;;;;-145.18;100.00;46638.91;4991694;28;19913;-70
2022/08/08 05:45:38;;;;;;;;;;;;;;;-145.18;100.00;46640.88;4992220;28;20351;-70
2022/08/08 05:48:04;;;;;;;;;;;;;;;-145.18;100.00;46640.88;4991506;28;19949;-70
2022/08/08 05:50:29;;;;;;;;;;;;;;;-145.18;100.00;46640.88;4992144;28;20012;-70
2022/08/08 05:52:55;;;;;;;;;;;;;;;-145.18;100.00;46638.91;4991569;28;19915;-70
2022/08/08 05:55:20;;;;;;;;;;;;;;;-145.18;100.00;46640.88;4992073;28;19922;-70
2022/08/08 05:57:46;;;;;;;;;;;;;;;-145.18;100.00;46613.50;4991417;28;19921;-70
2022/08/08 06:00:11;;;;;;;;;;;;;;;-145.18;100.00;46638.91;4991800;28;19929;-71
2022/08/08 06:05:21;;;;;;;;;;;;;;;-145.18;100.00;46615.47;5011812;28;19953;-70
2022/08/08 06:07:47;;;;;;;;;;;;;;;-145.18;100.00;46617.41;5010941;28;20305;-70
2022/08/08 06:10:12;;;;;;;;;;;;;;;-145.18;100.00;46613.50;5011343;28;20005;-71
2022/08/08 06:12:40;;;;;;;;;;;;;;;-145.18;100.00;46617.41;5011012;28;19921;-71
2022/08/08 06:15:06;;;;;;;;;;;;;;;-145.18;100.00;46617.41;5010982;28;20492;-71
2022/08/08 06:17:32;;;;;;;;;;;;;;;-145.18;100.00;46615.47;5011011;28;19914;-70
2022/08/08 06:19:59;;;;;;;;;;;;;;;-145.18;100.00;46619.38;5011216;28;19945;-71
2022/08/08 06:22:24;;;;;;;;;;;;;;;-145.18;100.00;46617.41;5011075;28;20259;-72
2022/08/08 06:24:49;;;;;;;;;;;;;;;-145.18;100.00;46621.31;5011092;28;19928;-70
2022/08/08 06:27:16;;;;;;;;;;;;;;;-145.18;100.00;46627.19;5011134;28;19992;-71
2022/08/08 06:29:47;;;;;;;;;;;;;;;-145.18;100.00;46627.19;5010920;28;19922;-71
2022/08/08 06:32:14;;;;;;;;;;;;;;;-145.18;100.00;46629.13;5010981;28;20366;-71
2022/08/08 06:34:42;;;;;;;;;;;;;;;-145.18;100.00;46631.09;5010839;28;19918;-71
2022/08/08 06:37:11;;;;;;;;;;;;;;;-145.18;100.00;46631.09;5011038;28;19949;-71
2022/08/08 06:39:37;;;;;;;;;;;;;;;-145.18;100.00;46629.13;5010918;28;19981;-71
2022/08/08 06:42:03;;;;;;;;;;;;;;;-145.18;100.00;46633.06;5010981;28;19917;-68
2022/08/08 06:44:30;;;;;;;;;;;;;;;-145.18;100.00;46629.13;5010482;28;19921;-71
2022/08/08 06:46:56;;;;;;;;;;;;;;;-145.18;100.00;46633.06;5011270;28;20366;-71
2022/08/08 06:49:21;;;;;;;;;;;;;;;-145.18;100.00;46631.09;5010925;28;19924;-69
2022/08/08 06:51:47;;;;;;;;;;;;;;;-145.18;100.00;46633.06;5011126;28;19922;-71
2022/08/08 06:54:12;;;;;;;;;;;;;;;-145.18;100.00;46629.13;5010367;28;19936;-69
2022/08/08 06:56:38;;;;;;;;;;;;;;;-145.18;100.00;46635.00;5010795;28;19971;-69
2022/08/08 06:59:03;;;;;;;;;;;;;;;-145.18;100.00;46635.00;5010377;28;19948;-69
2022/08/08 07:01:34;;;;;;;;;;;;;;;-145.18;100.00;46638.91;5011349;28;20402;-69
2022/08/08 07:04:00;;;;;;;;;;;;;;;-145.18;100.00;46638.91;5010283;28;19924;-69
2022/08/08 07:06:30;;;;;;;;;;;;;;;-145.18;100.00;46646.72;5010722;28;20414;-71
2022/08/08 07:09:12;;;;;;;;;;;;;;;-145.18;100.00;46646.72;5010567;28;20317;-69
2022/08/08 07:11:41;;;;;;;;;;;;;;;-145.18;100.00;46642.81;5011000;28;20378;-69
2022/08/08 07:14:07;;;;;;;;;;;;;;;-145.18;100.00;46648.69;5010262;28;19917;-69
2022/08/08 07:16:51;;;;;;;;;;;;;;;-145.18;100.00;46648.69;5010576;28;19917;-69
2022/08/08 07:19:22;;;;;;;;;;;;;;;-145.18;100.00;46646.72;5010195;28;19976;-69
2022/08/08 07:21:54;;;;;;;;;;;;;;;-145.18;100.00;46648.69;5011064;28;20341;-68
2022/08/08 07:24:24;;;;;;;;;;;;;;;-145.18;100.00;46650.63;5013577;28;19914;-69
2022/08/08 07:26:51;;;;;;;;;;;;;;;-145.18;100.00;46648.69;5014392;28;19956;-69
2022/08/08 07:29:17;;;;;;;;;;;;;;;-145.18;100.00;46648.69;5013967;28;19936;-69
2022/08/08 07:31:42;;;;;;;;;;;;;;;-145.18;100.00;46646.72;5014150;28;20369;-69
2022/08/08 07:34:09;;;;;;;;;;;;;;;-145.18;100.00;46654.53;5013474;28;19928;-69
2022/08/08 07:36:34;;;;;;;;;;;;;;;-145.18;100.00;46652.59;5013968;28;20000;-71
2022/08/08 07:39:00;;;;;;;;;;;;;;;-145.18;100.00;46652.59;5013545;28;20398;-69
2022/08/08 07:41:26;;;;;;;;;;;;;;;-145.18;100.00;46652.59;5013723;28;20373;-69
2022/08/08 07:43:54;;;;;;;;;;;;;;;-145.18;100.00;46654.53;5013633;28;19920;-69
2022/08/08 07:46:19;;;;;;;;;;;;;;;-145.18;100.00;46656.50;5013813;28;19976;-69
2022/08/08 07:48:44;;;;;;;;;;;;;;;-145.18;100.00;46656.50;5013358;28;19949;-70
2022/08/08 07:51:10;;;;;;;;;;;;;;;-145.18;100.00;46660.41;5013574;28;19922;-70
2022/08/08 07:54:11;;;;;;;;;;;;;;;-145.18;100.00;46664.31;5013484;28;19920;-69
2022/08/08 07:56:54;;;;;;;;;;;;;;;-145.18;100.00;46652.59;4914761;29;19915;-69
2022/08/08 07:59:21;;;;;;;;;;;;;;;-145.18;100.00;46652.59;5003784;28;20297;-70
2022/08/08 08:01:56;;;;;;;;;;;;;;;-145.18;100.00;46660.41;5013470;28;19917;-68
2022/08/08 08:04:24;;;;;;;;;;;;;;;-145.18;100.00;46654.53;5012745;28;19921;-69
2022/08/08 08:06:51;;;;;;;;;;;;;;;-145.18;100.00;46652.59;5013500;28;20366;-70
2022/08/08 08:09:23;;;;;;;;;;;;;;;-145.18;100.00;46654.53;5013028;28;19913;-69
2022/08/08 08:11:49;;;;;;;;;;;;;;;-145.18;100.00;46656.50;5013526;28;19956;-69
2022/08/08 08:14:21;;;;;;;;;;;;;;;-145.18;100.00;46648.69;5012851;28;19963;-69
2022/08/08 08:16:47;;;;;;;;;;;;;;;-145.18;100.00;46654.53;5013249;28;20281;-69
2022/08/08 08:19:13;;;;;;;;;;;;;;;-145.18;100.00;46654.53;5012942;28;19921;-70
2022/08/08 08:21:39;;;;;;;;;;;;;;;-145.18;100.00;46660.41;5013204;28;19917;-70
2022/08/08 08:24:05;;;;;;;;;;;;;;;-145.18;100.00;46652.59;5012847;28;19920;-70
2022/08/08 08:26:30;;;;;;;;;;;;;;;-145.18;100.00;46642.81;5013039;28;19917;-70
2022/08/08 08:28:55;;;;;;;;;;;;;;;-145.18;100.00;46599.84;5012576;28;20396;-69
2022/08/08 08:31:21;;;;;;;;;;;;;;;-145.18;100.00;46592.03;5012959;28;20015;-70
2022/08/08 08:33:46;;;;;;;;;;;;;;;-145.18;100.00;46535.38;5011696;28;19917;-69
2022/08/08 08:36:12;;;;;;;;;;;;;;;-145.18;100.00;46527.56;5012650;28;20007;-69
2022/08/08 08:38:37;;;;;;;;;;;;;;;-145.18;100.00;46535.38;5012339;28;19921;-70
2022/08/08 08:41:04;;;;;;;;;;;;;;;-145.18;100.00;46531.47;5012618;28;19921;-70
2022/08/08 08:43:30;;;;;;;;;;;;;;;-145.18;100.00;46529.53;5012655;28;19917;-70
2022/08/08 08:45:56;;;;;;;;;;;;;;;-145.18;100.00;46527.56;5012975;28;19968;-70
2022/08/08 08:48:21;;;;;;;;;;;;;;;-145.18;100.00;46529.53;5012188;28;19933;-70
2022/08/08 08:50:48;;;;;;;;;;;;;;;-145.18;100.00;46525.63;5012679;28;19913;-70
2022/08/08 08:53:14;;;;;;;;;;;;;;;-145.18;100.00;46535.38;5012199;28;20025;-70
2022/08/08 08:55:41;;;;;;;;;;;;;;;-145.18;100.00;46543.19;5012773;28;19924;-70
2022/08/08 08:58:07;;;;;;;;;;;;;;;-145.18;100.00;46545.16;5011793;28;20400;-70
2022/08/08 09:00:34;;;;;;;;;;;;;;;-145.18;100.00;46541.25;5012300;28;19914;-70
2022/08/08 09:03:04;;;;;;;;;;;;;;;-145.18;100.00;46543.19;5011959;28;20378;-70
2022/08/08 09:05:30;;;;;;;;;;;;;;;-145.18;100.00;46527.56;5012514;28;19913;-69
2022/08/08 09:07:58;;;;;;;;;;;;;;;-145.18;100.00;46539.28;5012521;28;19963;-70
2022/08/08 09:10:26;;;;;;;;;;;;;;;-145.18;100.00;46533.44;5011942;28;20392;-70
2022/08/08 09:12:52;;;;;;;;;;;;;;;-145.18;100.00;46531.47;5012258;28;19925;-70
2022/08/08 09:15:17;;;;;;;;;;;;;;;-145.18;100.00;46533.44;5011815;28;19917;-70
2022/08/08 09:17:43;;;;;;;;;;;;;;;-145.18;100.00;46558.81;5012150;28;19960;-70
2022/08/08 09:20:09;;;;;;;;;;;;;;;-145.18;100.00;46543.19;5011582;28;19917;-70
2022/08/08 09:22:35;;;;;;;;;;;;;;;-145.18;100.00;46543.19;5012142;28;19909;-70
2022/08/08 09:25:01;;;;;;;;;;;;;;;-145.18;100.00;46568.59;5011587;28;19925;-70
2022/08/08 09:27:26;;;;;;;;;;;;;;;-145.18;100.00;46785.41;4994437;28;19968;-70
2022/08/08 09:29:58;;;;;;;;;;;;;;;-145.18;100.00;46588.13;5011642;28;19921;-70
2022/08/08 09:32:37;;;;;;;;;;;;;;;-145.18;100.00;46552.97;5011794;28;19980;-70
2022/08/08 09:35:04;;;;;;;;;;;;;;;-145.18;100.00;46713.13;5011475;28;20428;-70
2022/08/08 09:37:29;;;;;;;;;;;;;;;-145.18;100.00;46765.88;5011932;28;19920;-70
2022/08/08 09:40:00;;;;;;;;;;;;;;;-145.18;100.00;46562.72;5011366;28;19914;-70
2022/08/08 09:42:31;;;;;;;;;;;;;;;-145.18;100.00;46597.88;5011490;28;19913;-70
2022/08/08 09:45:03;;;;;;;;;;;;;;;-145.18;100.00;46621.31;5011212;28;19944;-70
2022/08/08 09:47:30;;;;;;;;;;;;;;;-145.18;100.00;46613.50;4994132;28;19917;-70
2022/08/08 09:49:57;;;;;;;;;;;;;;;-145.18;100.00;46586.16;5011213;28;20381;-70
2022/08/08 09:52:26;;;;;;;;;;;;;;;-145.18;100.00;46580.31;5011414;28;20345;-70
2022/08/08 09:54:52;;;;;;;;;;;;;;;-145.18;100.00;46584.22;5011039;28;19913;-70
2022/08/08 09:57:30;;;;;;;;;;;;;;;-145.18;100.00;46564.69;5011383;28;19925;-70
2022/08/08 09:59:58;;;;;;;;;;;;;;;-145.18;100.00;46584.22;5011208;28;20000;-70
2022/08/08 10:02:29;;;;;;;;;;;;;;;-145.18;100.00;46576.41;5010936;28;19917;-70
2022/08/08 10:05:01;;;;;;;;;;;;;;;-145.18;100.00;46568.59;5011014;28;20476;-70
2022/08/08 10:07:26;;;;;;;;;;;;;;;-145.18;100.00;46650.63;5011312;28;19921;-70
2022/08/08 10:09:51;;;;;;;;;;;;;;;-145.18;100.00;46570.53;5011035;28;20328;-70
2022/08/08 10:12:17;;;;;;;;;;;;;;;-145.18;100.00;46574.44;4993562;28;19918;-70
2022/08/08 10:14:42;;;;;;;;;;;;;;;-145.18;100.00;46560.78;5011008;28;20458;-70
2022/08/08 10:17:08;;;;;;;;;;;;;;;-145.18;100.00;46586.16;5011125;28;19971;-70
2022/08/08 10:19:35;;;;;;;;;;;;;;;-145.18;100.00;46638.91;5010886;28;20016;-70
2022/08/08 10:22:01;;;;;;;;;;;;;;;-145.18;100.00;47162.44;4993702;28;19914;-70
2022/08/08 10:24:27;;;;;;;;;;;;;;;-145.18;100.00;47170.25;5010515;28;19920;-70
2022/08/08 10:26:57;;;;;;;;;;;;;;;-145.18;100.00;47129.22;5011412;28;19914;-70
2022/08/08 10:29:37;;;;;;;;;;;;;;;-145.18;100.00;47055.00;5010692;28;19917;-70
2022/08/08 10:34:51;;;;;;;;;;;;;;;-145.18;100.00;47082.34;5010973;28;19936;-70
2022/08/08 10:37:25;;;;;;;;;;;;;;;-145.18;100.00;47086.25;5010956;28;19917;-70
2022/08/08 10:39:50;;;;;;;;;;;;;;;-145.18;100.00;47039.34;5010864;28;19917;-70
2022/08/08 10:42:18;;;;;;;;;;;;;;;-145.18;100.00;47027.63;5010966;28;19917;-70
2022/08/08 10:44:43;;;;;;;;;;;;;;;-145.18;100.00;47010.06;5010564;28;20464;-70
2022/08/08 10:47:09;;;;;;;;;;;;;;;-145.18;100.00;47012.00;5010888;28;20003;-71
2022/08/08 10:49:34;;;;;;;;;;;;;;;-145.18;100.00;46988.56;5010820;28;19917;-71
2022/08/08 10:51:59;;;;;;;;;;;;;;;-145.18;100.00;47049.13;4993470;28;19975;-71
2022/08/08 10:54:25;;;;;;;;;;;;;;;-145.18;100.00;47174.16;5010284;28;20044;-71
2022/08/08 10:57:00;;;;;;;;;;;;;;;-145.18;100.00;47199.56;5011464;28;20402;-70
2022/08/08 10:59:26;;;;;;;;;;;;;;;-145.18;100.00;47006.16;5014206;28;19914;-70
2022/08/08 11:01:51;;;;;;;;;;;;;;;-145.18;100.00;46902.63;5014702;28;19914;-71
2022/08/08 11:04:17;;;;;;;;;;;;;;;-145.18;100.00;46773.69;5014055;28;20539;-71
2022/08/08 11:06:42;;;;;;;;;;;;;;;-145.18;100.00;47193.69;5014733;28;19976;-70
2022/08/08 11:09:08;;;;;;;;;;;;;;;-145.18;100.00;47201.50;5013830;28;19914;-70
2022/08/08 11:11:38;;;;;;;;;;;;;;;-145.18;100.00;47191.75;5014546;28;20381;-70
2022/08/08 11:14:04;;;;;;;;;;;;;;;-145.18;100.00;47129.22;5014322;28;19964;-70
2022/08/08 11:16:31;;;;;;;;;;;;;;;-145.18;100.00;46976.84;5014040;28;19913;-70
2022/08/08 11:18:58;;;;;;;;;;;;;;;-145.18;100.00;47127.28;5013830;28;19913;-71
2022/08/08 11:21:24;;;;;;;;;;;;;;;-145.18;100.00;47066.72;5014197;28;19921;-70
2022/08/08 11:23:52;;;;;;;;;;;;;;;-145.18;100.00;47068.66;5014041;28;20420;-70
2022/08/08 11:26:17;;;;;;;;;;;;;;;-145.18;100.00;47125.31;5014107;28;19999;-70
2022/08/08 11:28:43;;;;;;;;;;;;;;;-145.18;100.00;47144.84;5013846;28;20016;-71
2022/08/08 11:31:12;;;;;;;;;;;;;;;-145.18;100.00;47172.19;5014042;28;19924;-71
2022/08/08 11:33:38;;;;;;;;;;;;;;;-145.18;100.00;47168.28;5013718;28;19913;-70
2022/08/08 11:36:03;;;;;;;;;;;;;;;-145.18;100.00;47062.81;5014341;28;19929;-71
2022/08/08 11:38:29;;;;;;;;;;;;;;;-145.18;100.00;47178.06;5013385;28;19926;-71
2022/08/08 11:40:54;;;;;;;;;;;;;;;-145.18;100.00;47127.28;5014086;28;19953;-70
2022/08/08 11:43:27;;;;;;;;;;;;;;;-145.18;100.00;47142.91;5013832;28;20597;-71
2022/08/08 11:45:52;;;;;;;;;;;;;;;-145.18;100.00;47139.00;5013767;28;20362;-71
2022/08/08 11:48:18;;;;;;;;;;;;;;;-145.18;100.00;47139.00;5013745;28;20000;-71
2022/08/08 11:50:45;;;;;;;;;;;;;;;-145.18;100.00;47115.56;4998600;28;19917;-71
2022/08/08 11:53:10;;;;;;;;;;;;;;;-145.18;100.00;47070.63;4993753;28;19917;-71
2022/08/08 11:55:45;;;;;;;;;;;;;;;-145.18;100.00;47037.41;4993960;28;20358;-71
2022/08/08 11:58:13;;;;;;;;;;;;;;;-145.18;100.00;46976.84;4993931;28;19969;-71
2022/08/08 12:00:57;;;;;;;;;;;;;;;-145.18;100.00;46969.03;4993457;28;20342;-71
2022/08/08 12:03:23;;;;;;;;;;;;;;;-145.18;100.00;46965.13;4993714;28;19918;-71
2022/08/08 12:05:50;;;;;;;;;;;;;;;-145.18;100.00;46982.72;4993785;28;19956;-71
2022/08/08 12:08:16;;;;;;;;;;;;;;;-145.18;100.00;46953.41;4993700;28;19917;-71
2022/08/08 12:10:45;;;;;;;;;;;;;;;-145.18;100.00;46974.91;4993449;28;19922;-72
2022/08/08 12:13:13;;;;;;;;;;;;;;;-145.18;100.00;46955.34;4993439;28;20435;-71
2022/08/08 12:15:39;;;;;;;;;;;;;;;-145.18;100.00;46992.47;4993713;28;19960;-71
2022/08/08 12:18:15;;;;;;;;;;;;;;;-145.18;100.00;46945.59;4993688;28;20389;-71
2022/08/08 12:20:40;;;;;;;;;;;;;;;-145.18;100.00;46947.53;4993060;28;19992;-71
2022/08/08 12:23:06;;;;;;;;;;;;;;;-145.18;100.00;46957.31;4993446;28;20025;-71
2022/08/08 12:25:32;;;;;;;;;;;;;;;-145.18;100.00;47013.97;4993023;28;19914;-71
2022/08/08 12:28:18;;;;;;;;;;;;;;;-145.18;100.00;47072.56;4993733;28;19921;-71
2022/08/08 12:30:44;;;;;;;;;;;;;;;-145.18;100.00;47096.00;4992382;28;19917;-70
2022/08/08 12:33:19;;;;;;;;;;;;;;;-145.18;100.00;47109.69;4993503;28;19925;-71
2022/08/08 12:35:45;;;;;;;;;;;;;;;-145.18;100.00;47139.00;4992992;28;20375;-71
2022/08/08 12:38:12;;;;;;;;;;;;;;;-145.18;100.00;47170.25;4993108;28;19921;-71
2022/08/08 12:40:41;;;;;;;;;;;;;;;-145.18;100.00;47172.19;4992703;28;19969;-71
2022/08/08 12:43:08;;;;;;;;;;;;;;;-145.18;100.00;47146.81;4993389;28;20409;-71
2022/08/08 12:45:40;;;;;;;;;;;;;;;-145.18;100.00;47078.44;4992796;28;19918;-71